sensor_id;sensor_type;location;lat;lon;timestamp;P1;durP1;ratioP1;P2;durP2;ratioP2
76035;SDS011;64732;56.314;44.068;2023-01-26T00:02:03;26.08;;;12.18;;
76035;SDS011;64732;56.314;44.068;2023-01-26T00:04:24;27.98;;;12.70;;
76035;SDS011;64732;56.314;44.068;2023-01-26T00:06:45;30.30;;;12.98;;
76035;SDS011;64732;56.314;44.068;2023-01-26T00:09:10;25.50;;;11.30;;
76035;SDS011;64732;56.314;44.068;2023-01-26T00:11:32;31.17;;;13.70;;
76035;SDS011;64732;56.314;44.068;2023-01-26T00:13:56;30.20;;;13.27;;
76035;SDS011;64732;56.314;44.068;2023-01-26T00:16:19;22.85;;;11.15;;
76035;SDS011;64732;56.314;44.068;2023-01-26T00:18:43;26.35;;;11.68;;
76035;SDS011;64732;56.314;44.068;2023-01-26T00:21:05;28.73;;;11.90;;
76035;SDS011;64732;56.314;44.068;2023-01-26T00:23:27;27.60;;;12.15;;
76035;SDS011;64732;56.314;44.068;2023-01-26T00:25:49;32.35;;;12.70;;
76035;SDS011;64732;56.314;44.068;2023-01-26T00:28:10;28.25;;;11.00;;
76035;SDS011;64732;56.314;44.068;2023-01-26T00:30:33;28.50;;;11.95;;
76035;SDS011;64732;56.314;44.068;2023-01-26T00:32:54;32.75;;;14.85;;
76035;SDS011;64732;56.314;44.068;2023-01-26T00:35:15;35.28;;;13.15;;
76035;SDS011;64732;56.314;44.068;2023-01-26T00:37:36;39.15;;;16.35;;
76035;SDS011;64732;56.314;44.068;2023-01-26T00:39:57;38.40;;;15.32;;
76035;SDS011;64732;56.314;44.068;2023-01-26T00:42:18;39.47;;;14.70;;
76035;SDS011;64732;56.314;44.068;2023-01-26T00:44:39;40.10;;;14.13;;
76035;SDS011;64732;56.314;44.068;2023-01-26T00:47:04;34.28;;;14.63;;
76035;SDS011;64732;56.314;44.068;2023-01-26T00:49:26;33.30;;;14.80;;
76035;SDS011;64732;56.314;44.068;2023-01-26T00:51:47;32.72;;;13.32;;
76035;SDS011;64732;56.314;44.068;2023-01-26T00:54:08;39.92;;;15.88;;
76035;SDS011;64732;56.314;44.068;2023-01-26T00:56:29;47.42;;;17.17;;
76035;SDS011;64732;56.314;44.068;2023-01-26T00:58:50;43.10;;;17.13;;
76035;SDS011;64732;56.314;44.068;2023-01-26T01:01:11;38.03;;;16.83;;
76035;SDS011;64732;56.314;44.068;2023-01-26T01:03:34;40.70;;;14.25;;
76035;SDS011;64732;56.314;44.068;2023-01-26T01:05:55;35.15;;;15.10;;
76035;SDS011;64732;56.314;44.068;2023-01-26T01:08:16;38.05;;;14.65;;
76035;SDS011;64732;56.314;44.068;2023-01-26T01:10:37;32.40;;;14.80;;
76035;SDS011;64732;56.314;44.068;2023-01-26T01:13:00;40.17;;;15.50;;
76035;SDS011;64732;56.314;44.068;2023-01-26T01:15:21;34.55;;;13.93;;
76035;SDS011;64732;56.314;44.068;2023-01-26T01:17:42;36.40;;;14.20;;
76035;SDS011;64732;56.314;44.068;2023-01-26T01:20:07;27.95;;;12.85;;
76035;SDS011;64732;56.314;44.068;2023-01-26T01:22:29;38.72;;;15.40;;
76035;SDS011;64732;56.314;44.068;2023-01-26T01:24:50;33.97;;;14.00;;
76035;SDS011;64732;56.314;44.068;2023-01-26T01:27:11;25.95;;;11.68;;
76035;SDS011;64732;56.314;44.068;2023-01-26T01:29:32;34.20;;;15.82;;
76035;SDS011;64732;56.314;44.068;2023-01-26T01:31:53;39.22;;;17.45;;
76035;SDS011;64732;56.314;44.068;2023-01-26T01:34:14;37.95;;;15.95;;
76035;SDS011;64732;56.314;44.068;2023-01-26T01:36:37;32.72;;;13.70;;
76035;SDS011;64732;56.314;44.068;2023-01-26T01:38:58;34.25;;;15.38;;
76035;SDS011;64732;56.314;44.068;2023-01-26T01:41:19;32.88;;;14.88;;
76035;SDS011;64732;56.314;44.068;2023-01-26T01:43:41;31.45;;;14.25;;
76035;SDS011;64732;56.314;44.068;2023-01-26T01:46:02;31.98;;;14.45;;
76035;SDS011;64732;56.314;44.068;2023-01-26T01:48:28;33.72;;;14.68;;
76035;SDS011;64732;56.314;44.068;2023-01-26T01:50:51;25.40;;;10.82;;
76035;SDS011;64732;56.314;44.068;2023-01-26T01:53:17;38.17;;;16.10;;
76035;SDS011;64732;56.314;44.068;2023-01-26T01:55:40;28.77;;;13.60;;
76035;SDS011;64732;56.314;44.068;2023-01-26T01:58:01;26.30;;;12.43;;
76035;SDS011;64732;56.314;44.068;2023-01-26T02:00:23;32.70;;;12.90;;
76035;SDS011;64732;56.314;44.068;2023-01-26T02:02:45;26.60;;;13.10;;
76035;SDS011;64732;56.314;44.068;2023-01-26T02:05:12;32.10;;;14.02;;
76035;SDS011;64732;56.314;44.068;2023-01-26T02:07:35;30.38;;;13.50;;
76035;SDS011;64732;56.314;44.068;2023-01-26T02:09:59;36.38;;;16.20;;
76035;SDS011;64732;56.314;44.068;2023-01-26T02:12:23;33.90;;;14.65;;
76035;SDS011;64732;56.314;44.068;2023-01-26T02:14:47;41.85;;;15.20;;
76035;SDS011;64732;56.314;44.068;2023-01-26T02:17:28;27.85;;;12.10;;
76035;SDS011;64732;56.314;44.068;2023-01-26T02:19:50;28.52;;;12.68;;
76035;SDS011;64732;56.314;44.068;2023-01-26T02:22:21;29.13;;;12.95;;
76035;SDS011;64732;56.314;44.068;2023-01-26T02:24:45;36.70;;;16.17;;
76035;SDS011;64732;56.314;44.068;2023-01-26T02:27:09;29.92;;;13.73;;
76035;SDS011;64732;56.314;44.068;2023-01-26T02:29:30;28.20;;;12.63;;
76035;SDS011;64732;56.314;44.068;2023-01-26T02:31:51;26.85;;;12.57;;
76035;SDS011;64732;56.314;44.068;2023-01-26T02:34:12;30.00;;;13.13;;
76035;SDS011;64732;56.314;44.068;2023-01-26T02:36:33;27.67;;;12.15;;
76035;SDS011;64732;56.314;44.068;2023-01-26T02:38:59;22.90;;;11.25;;
76035;SDS011;64732;56.314;44.068;2023-01-26T02:41:35;29.00;;;13.55;;
76035;SDS011;64732;56.314;44.068;2023-01-26T02:43:58;33.13;;;13.07;;
76035;SDS011;64732;56.314;44.068;2023-01-26T02:46:19;29.50;;;13.65;;
76035;SDS011;64732;56.314;44.068;2023-01-26T02:48:41;28.73;;;11.65;;
76035;SDS011;64732;56.314;44.068;2023-01-26T02:51:02;28.02;;;11.43;;
76035;SDS011;64732;56.314;44.068;2023-01-26T02:53:23;31.92;;;13.85;;
76035;SDS011;64732;56.314;44.068;2023-01-26T02:55:44;29.08;;;11.75;;
76035;SDS011;64732;56.314;44.068;2023-01-26T02:58:05;31.20;;;14.00;;
76035;SDS011;64732;56.314;44.068;2023-01-26T03:00:29;23.73;;;11.05;;
76035;SDS011;64732;56.314;44.068;2023-01-26T03:02:51;25.17;;;11.75;;
76035;SDS011;64732;56.314;44.068;2023-01-26T03:05:13;31.67;;;14.07;;
76035;SDS011;64732;56.314;44.068;2023-01-26T03:07:34;22.50;;;9.98;;
76035;SDS011;64732;56.314;44.068;2023-01-26T03:09:55;23.20;;;10.23;;
76035;SDS011;64732;56.314;44.068;2023-01-26T03:12:16;27.77;;;11.60;;
76035;SDS011;64732;56.314;44.068;2023-01-26T03:14:37;20.77;;;11.32;;
76035;SDS011;64732;56.314;44.068;2023-01-26T03:17:01;22.20;;;10.30;;
76035;SDS011;64732;56.314;44.068;2023-01-26T03:19:21;25.60;;;13.15;;
76035;SDS011;64732;56.314;44.068;2023-01-26T03:21:42;31.95;;;14.10;;
76035;SDS011;64732;56.314;44.068;2023-01-26T03:24:03;32.35;;;14.48;;
76035;SDS011;64732;56.314;44.068;2023-01-26T03:26:25;24.40;;;12.18;;
76035;SDS011;64732;56.314;44.068;2023-01-26T03:28:46;22.77;;;9.35;;
76035;SDS011;64732;56.314;44.068;2023-01-26T03:31:07;24.02;;;11.65;;
76035;SDS011;64732;56.314;44.068;2023-01-26T03:33:30;27.70;;;12.15;;
76035;SDS011;64732;56.314;44.068;2023-01-26T03:35:52;21.85;;;8.82;;
76035;SDS011;64732;56.314;44.068;2023-01-26T03:38:13;23.88;;;10.90;;
76035;SDS011;64732;56.314;44.068;2023-01-26T03:40:34;22.48;;;11.20;;
76035;SDS011;64732;56.314;44.068;2023-01-26T03:42:55;25.77;;;11.40;;
76035;SDS011;64732;56.314;44.068;2023-01-26T03:45:16;26.90;;;12.45;;
76035;SDS011;64732;56.314;44.068;2023-01-26T03:47:37;22.23;;;10.45;;
76035;SDS011;64732;56.314;44.068;2023-01-26T03:50:01;28.33;;;12.93;;
76035;SDS011;64732;56.314;44.068;2023-01-26T03:52:24;26.13;;;13.25;;
76035;SDS011;64732;56.314;44.068;2023-01-26T03:54:46;26.55;;;10.65;;
76035;SDS011;64732;56.314;44.068;2023-01-26T03:57:07;25.20;;;12.57;;
76035;SDS011;64732;56.314;44.068;2023-01-26T03:59:30;27.50;;;11.93;;
76035;SDS011;64732;56.314;44.068;2023-01-26T04:01:50;32.72;;;14.18;;
76035;SDS011;64732;56.314;44.068;2023-01-26T04:04:12;37.17;;;14.52;;
76035;SDS011;64732;56.314;44.068;2023-01-26T04:06:36;29.00;;;12.80;;
76035;SDS011;64732;56.314;44.068;2023-01-26T04:08:57;27.33;;;11.45;;
76035;SDS011;64732;56.314;44.068;2023-01-26T04:11:18;27.95;;;12.65;;
76035;SDS011;64732;56.314;44.068;2023-01-26T04:13:39;28.40;;;12.10;;
76035;SDS011;64732;56.314;44.068;2023-01-26T04:16:00;25.90;;;12.20;;
76035;SDS011;64732;56.314;44.068;2023-01-26T04:18:21;26.83;;;12.80;;
76035;SDS011;64732;56.314;44.068;2023-01-26T04:20:43;31.98;;;14.30;;
76035;SDS011;64732;56.314;44.068;2023-01-26T04:23:08;29.85;;;13.60;;
76035;SDS011;64732;56.314;44.068;2023-01-26T04:25:37;28.15;;;13.63;;
76035;SDS011;64732;56.314;44.068;2023-01-26T04:27:58;35.78;;;14.95;;
76035;SDS011;64732;56.314;44.068;2023-01-26T04:30:19;29.67;;;13.05;;
76035;SDS011;64732;56.314;44.068;2023-01-26T04:32:40;29.40;;;12.98;;
76035;SDS011;64732;56.314;44.068;2023-01-26T04:35:01;32.67;;;12.98;;
76035;SDS011;64732;56.314;44.068;2023-01-26T04:37:22;34.25;;;16.10;;
76035;SDS011;64732;56.314;44.068;2023-01-26T04:39:46;30.55;;;11.25;;
76035;SDS011;64732;56.314;44.068;2023-01-26T04:42:07;33.50;;;14.27;;
76035;SDS011;64732;56.314;44.068;2023-01-26T04:44:27;35.63;;;13.45;;
76035;SDS011;64732;56.314;44.068;2023-01-26T04:46:48;33.78;;;14.98;;
76035;SDS011;64732;56.314;44.068;2023-01-26T04:49:09;24.20;;;10.55;;
76035;SDS011;64732;56.314;44.068;2023-01-26T04:51:31;30.08;;;13.02;;
76035;SDS011;64732;56.314;44.068;2023-01-26T04:53:52;40.00;;;15.55;;
76035;SDS011;64732;56.314;44.068;2023-01-26T04:56:17;32.17;;;14.23;;
76035;SDS011;64732;56.314;44.068;2023-01-26T04:58:40;33.90;;;15.02;;
76035;SDS011;64732;56.314;44.068;2023-01-26T05:01:01;35.60;;;15.90;;
76035;SDS011;64732;56.314;44.068;2023-01-26T05:03:22;27.40;;;11.02;;
76035;SDS011;64732;56.314;44.068;2023-01-26T05:05:43;24.88;;;11.48;;
76035;SDS011;64732;56.314;44.068;2023-01-26T05:08:07;32.08;;;14.07;;
76035;SDS011;64732;56.314;44.068;2023-01-26T05:10:28;25.67;;;10.55;;
76035;SDS011;64732;56.314;44.068;2023-01-26T05:12:51;30.63;;;12.00;;
76035;SDS011;64732;56.314;44.068;2023-01-26T05:15:12;34.25;;;14.40;;
76035;SDS011;64732;56.314;44.068;2023-01-26T05:17:33;30.98;;;12.55;;
76035;SDS011;64732;56.314;44.068;2023-01-26T05:19:54;36.67;;;12.48;;
76035;SDS011;64732;56.314;44.068;2023-01-26T05:22:15;32.53;;;13.77;;
76035;SDS011;64732;56.314;44.068;2023-01-26T05:24:36;33.42;;;14.35;;
76035;SDS011;64732;56.314;44.068;2023-01-26T05:26:57;31.38;;;12.32;;
76035;SDS011;64732;56.314;44.068;2023-01-26T05:29:21;32.05;;;13.13;;
76035;SDS011;64732;56.314;44.068;2023-01-26T05:31:42;36.33;;;14.57;;
76035;SDS011;64732;56.314;44.068;2023-01-26T05:34:03;26.02;;;10.40;;
76035;SDS011;64732;56.314;44.068;2023-01-26T05:36:24;28.85;;;12.43;;
76035;SDS011;64732;56.314;44.068;2023-01-26T05:38:45;27.75;;;11.88;;
76035;SDS011;64732;56.314;44.068;2023-01-26T05:41:06;27.23;;;11.25;;
76035;SDS011;64732;56.314;44.068;2023-01-26T05:43:27;23.83;;;10.75;;
76035;SDS011;64732;56.314;44.068;2023-01-26T05:45:50;23.77;;;10.77;;
76035;SDS011;64732;56.314;44.068;2023-01-26T05:48:11;27.27;;;11.10;;
76035;SDS011;64732;56.314;44.068;2023-01-26T05:50:32;22.85;;;9.13;;
76035;SDS011;64732;56.314;44.068;2023-01-26T05:52:53;26.83;;;11.52;;
76035;SDS011;64732;56.314;44.068;2023-01-26T05:55:14;46.97;;;18.00;;
76035;SDS011;64732;56.314;44.068;2023-01-26T05:57:35;30.17;;;13.07;;
76035;SDS011;64732;56.314;44.068;2023-01-26T05:59:59;25.98;;;12.55;;
76035;SDS011;64732;56.314;44.068;2023-01-26T06:02:22;22.83;;;10.35;;
76035;SDS011;64732;56.314;44.068;2023-01-26T06:04:43;29.42;;;11.25;;
76035;SDS011;64732;56.314;44.068;2023-01-26T06:07:05;28.73;;;11.45;;
76035;SDS011;64732;56.314;44.068;2023-01-26T06:09:25;27.52;;;11.68;;
76035;SDS011;64732;56.314;44.068;2023-01-26T06:11:46;29.02;;;13.18;;
76035;SDS011;64732;56.314;44.068;2023-01-26T06:14:08;30.38;;;12.65;;
76035;SDS011;64732;56.314;44.068;2023-01-26T06:16:29;25.05;;;10.20;;
76035;SDS011;64732;56.314;44.068;2023-01-26T06:18:52;32.92;;;13.90;;
76035;SDS011;64732;56.314;44.068;2023-01-26T06:21:13;29.95;;;12.40;;
76035;SDS011;64732;56.314;44.068;2023-01-26T06:23:34;39.13;;;13.68;;
76035;SDS011;64732;56.314;44.068;2023-01-26T06:25:57;28.15;;;12.55;;
76035;SDS011;64732;56.314;44.068;2023-01-26T06:28:18;25.85;;;11.80;;
76035;SDS011;64732;56.314;44.068;2023-01-26T06:30:39;27.60;;;12.07;;
76035;SDS011;64732;56.314;44.068;2023-01-26T06:33:00;28.08;;;11.20;;
76035;SDS011;64732;56.314;44.068;2023-01-26T06:35:23;31.02;;;12.25;;
76035;SDS011;64732;56.314;44.068;2023-01-26T06:37:46;20.55;;;10.07;;
76035;SDS011;64732;56.314;44.068;2023-01-26T06:40:08;29.33;;;11.35;;
76035;SDS011;64732;56.314;44.068;2023-01-26T06:42:30;30.13;;;12.18;;
76035;SDS011;64732;56.314;44.068;2023-01-26T06:44:51;29.85;;;13.77;;
76035;SDS011;64732;56.314;44.068;2023-01-26T06:47:12;36.70;;;14.57;;
76035;SDS011;64732;56.314;44.068;2023-01-26T06:49:33;33.75;;;14.90;;
76035;SDS011;64732;56.314;44.068;2023-01-26T06:52:02;35.78;;;12.45;;
76035;SDS011;64732;56.314;44.068;2023-01-26T06:54:24;39.45;;;14.93;;
76035;SDS011;64732;56.314;44.068;2023-01-26T06:56:45;38.28;;;16.10;;
76035;SDS011;64732;56.314;44.068;2023-01-26T06:59:06;34.25;;;15.02;;
76035;SDS011;64732;56.314;44.068;2023-01-26T07:01:27;37.30;;;16.77;;
76035;SDS011;64732;56.314;44.068;2023-01-26T07:03:51;36.30;;;14.65;;
76035;SDS011;64732;56.314;44.068;2023-01-26T07:06:13;33.83;;;15.50;;
76035;SDS011;64732;56.314;44.068;2023-01-26T07:08:36;35.17;;;15.20;;
76035;SDS011;64732;56.314;44.068;2023-01-26T07:10:57;32.60;;;11.85;;
76035;SDS011;64732;56.314;44.068;2023-01-26T07:13:18;34.70;;;14.13;;
76035;SDS011;64732;56.314;44.068;2023-01-26T07:15:39;36.00;;;14.88;;
76035;SDS011;64732;56.314;44.068;2023-01-26T07:18:02;36.33;;;15.93;;
76035;SDS011;64732;56.314;44.068;2023-01-26T07:20:23;29.00;;;12.63;;
76035;SDS011;64732;56.314;44.068;2023-01-26T07:22:44;39.28;;;14.00;;
76035;SDS011;64732;56.314;44.068;2023-01-26T07:25:08;35.08;;;15.60;;
76035;SDS011;64732;56.314;44.068;2023-01-26T07:27:29;31.48;;;12.95;;
76035;SDS011;64732;56.314;44.068;2023-01-26T07:29:50;44.15;;;15.10;;
76035;SDS011;64732;56.314;44.068;2023-01-26T07:32:12;28.20;;;12.60;;
76035;SDS011;64732;56.314;44.068;2023-01-26T07:34:33;42.00;;;14.77;;
76035;SDS011;64732;56.314;44.068;2023-01-26T07:36:54;35.60;;;15.50;;
76035;SDS011;64732;56.314;44.068;2023-01-26T07:39:15;33.33;;;14.20;;
76035;SDS011;64732;56.314;44.068;2023-01-26T07:41:38;35.28;;;14.82;;
76035;SDS011;64732;56.314;44.068;2023-01-26T07:43:59;48.85;;;16.77;;
76035;SDS011;64732;56.314;44.068;2023-01-26T07:46:20;37.00;;;13.38;;
76035;SDS011;64732;56.314;44.068;2023-01-26T07:48:41;51.55;;;18.85;;
76035;SDS011;64732;56.314;44.068;2023-01-26T07:51:02;52.50;;;19.20;;
76035;SDS011;64732;56.314;44.068;2023-01-26T07:53:24;37.10;;;13.63;;
76035;SDS011;64732;56.314;44.068;2023-01-26T07:55:46;38.08;;;15.52;;
76035;SDS011;64732;56.314;44.068;2023-01-26T07:58:09;42.13;;;15.00;;
76035;SDS011;64732;56.314;44.068;2023-01-26T08:00:30;43.30;;;15.48;;
76035;SDS011;64732;56.314;44.068;2023-01-26T08:02:51;37.40;;;16.63;;
76035;SDS011;64732;56.314;44.068;2023-01-26T08:05:12;52.53;;;19.40;;
76035;SDS011;64732;56.314;44.068;2023-01-26T08:07:33;49.05;;;16.10;;
76035;SDS011;64732;56.314;44.068;2023-01-26T08:09:54;50.78;;;18.88;;
76035;SDS011;64732;56.314;44.068;2023-01-26T08:12:15;48.33;;;18.92;;
76035;SDS011;64732;56.314;44.068;2023-01-26T08:14:39;56.33;;;19.92;;
76035;SDS011;64732;56.314;44.068;2023-01-26T08:17:00;51.83;;;18.77;;
76035;SDS011;64732;56.314;44.068;2023-01-26T08:19:21;60.70;;;18.30;;
76035;SDS011;64732;56.314;44.068;2023-01-26T08:21:42;56.45;;;19.95;;
76035;SDS011;64732;56.314;44.068;2023-01-26T08:24:03;61.05;;;21.00;;
76035;SDS011;64732;56.314;44.068;2023-01-26T08:26:24;52.17;;;17.90;;
76035;SDS011;64732;56.314;44.068;2023-01-26T08:28:45;59.05;;;21.98;;
76035;SDS011;64732;56.314;44.068;2023-01-26T08:31:10;66.15;;;21.92;;
76035;SDS011;64732;56.314;44.068;2023-01-26T08:33:32;60.60;;;21.58;;
76035;SDS011;64732;56.314;44.068;2023-01-26T08:35:59;62.65;;;20.80;;
76035;SDS011;64732;56.314;44.068;2023-01-26T08:38:20;51.40;;;18.63;;
76035;SDS011;64732;56.314;44.068;2023-01-26T08:40:41;52.08;;;19.15;;
76035;SDS011;64732;56.314;44.068;2023-01-26T08:43:02;55.90;;;20.40;;
76035;SDS011;64732;56.314;44.068;2023-01-26T08:45:23;58.83;;;20.23;;
76035;SDS011;64732;56.314;44.068;2023-01-26T08:47:48;64.13;;;23.55;;
76035;SDS011;64732;56.314;44.068;2023-01-26T08:50:09;53.58;;;18.00;;
76035;SDS011;64732;56.314;44.068;2023-01-26T08:52:32;63.13;;;22.25;;
76035;SDS011;64732;56.314;44.068;2023-01-26T08:54:53;56.60;;;18.63;;
76035;SDS011;64732;56.314;44.068;2023-01-26T08:57:14;59.17;;;19.20;;
76035;SDS011;64732;56.314;44.068;2023-01-26T08:59:35;58.28;;;21.45;;
76035;SDS011;64732;56.314;44.068;2023-01-26T09:01:56;57.53;;;18.52;;
76035;SDS011;64732;56.314;44.068;2023-01-26T09:04:19;58.13;;;20.73;;
76035;SDS011;64732;56.314;44.068;2023-01-26T09:06:40;47.63;;;16.73;;
76035;SDS011;64732;56.314;44.068;2023-01-26T09:09:01;59.38;;;18.08;;
76035;SDS011;64732;56.314;44.068;2023-01-26T09:11:22;58.13;;;21.40;;
76035;SDS011;64732;56.314;44.068;2023-01-26T09:13:43;53.80;;;19.45;;
76035;SDS011;64732;56.314;44.068;2023-01-26T09:16:04;49.17;;;18.15;;
76035;SDS011;64732;56.314;44.068;2023-01-26T09:18:26;48.38;;;17.48;;
76035;SDS011;64732;56.314;44.068;2023-01-26T09:20:50;56.30;;;20.70;;
76035;SDS011;64732;56.314;44.068;2023-01-26T09:23:11;41.00;;;14.85;;
76035;SDS011;64732;56.314;44.068;2023-01-26T09:25:34;57.85;;;20.92;;
76035;SDS011;64732;56.314;44.068;2023-01-26T09:27:55;59.08;;;22.23;;
76035;SDS011;64732;56.314;44.068;2023-01-26T09:30:16;48.35;;;16.27;;
76035;SDS011;64732;56.314;44.068;2023-01-26T09:32:37;56.67;;;19.63;;
76035;SDS011;64732;56.314;44.068;2023-01-26T09:34:58;71.95;;;19.35;;
76035;SDS011;64732;56.314;44.068;2023-01-26T09:37:22;49.03;;;18.42;;
76035;SDS011;64732;56.314;44.068;2023-01-26T09:39:43;61.33;;;20.63;;
76035;SDS011;64732;56.314;44.068;2023-01-26T09:42:10;53.42;;;17.45;;
76035;SDS011;64732;56.314;44.068;2023-01-26T09:44:42;52.25;;;17.20;;
76035;SDS011;64732;56.314;44.068;2023-01-26T09:47:09;48.60;;;16.02;;
76035;SDS011;64732;56.314;44.068;2023-01-26T09:49:38;55.47;;;19.10;;
76035;SDS011;64732;56.314;44.068;2023-01-26T09:52:05;44.05;;;16.05;;
76035;SDS011;64732;56.314;44.068;2023-01-26T09:54:35;47.97;;;16.10;;
76035;SDS011;64732;56.314;44.068;2023-01-26T09:56:59;61.75;;;21.50;;
76035;SDS011;64732;56.314;44.068;2023-01-26T09:59:23;58.30;;;20.08;;
76035;SDS011;64732;56.314;44.068;2023-01-26T10:01:50;46.08;;;16.65;;
76035;SDS011;64732;56.314;44.068;2023-01-26T10:04:16;54.35;;;19.20;;
76035;SDS011;64732;56.314;44.068;2023-01-26T10:06:39;44.25;;;18.10;;
76035;SDS011;64732;56.314;44.068;2023-01-26T10:09:02;56.40;;;20.42;;
76035;SDS011;64732;56.314;44.068;2023-01-26T10:11:29;45.63;;;15.75;;
76035;SDS011;64732;56.314;44.068;2023-01-26T10:13:53;55.78;;;19.85;;
76035;SDS011;64732;56.314;44.068;2023-01-26T10:16:17;45.80;;;17.10;;
76035;SDS011;64732;56.314;44.068;2023-01-26T10:18:39;44.05;;;18.35;;
76035;SDS011;64732;56.314;44.068;2023-01-26T10:21:14;48.88;;;20.45;;
76035;SDS011;64732;56.314;44.068;2023-01-26T10:23:39;51.65;;;17.38;;
76035;SDS011;64732;56.314;44.068;2023-01-26T10:26:10;44.67;;;18.58;;
76035;SDS011;64732;56.314;44.068;2023-01-26T10:28:34;45.45;;;15.98;;
76035;SDS011;64732;56.314;44.068;2023-01-26T10:30:56;42.58;;;15.80;;
76035;SDS011;64732;56.314;44.068;2023-01-26T10:33:18;47.63;;;18.33;;
76035;SDS011;64732;56.314;44.068;2023-01-26T10:35:42;39.40;;;15.50;;
76035;SDS011;64732;56.314;44.068;2023-01-26T10:38:03;54.33;;;20.35;;
76035;SDS011;64732;56.314;44.068;2023-01-26T10:40:48;53.75;;;17.60;;
76035;SDS011;64732;56.314;44.068;2023-01-26T10:43:10;46.13;;;16.98;;
76035;SDS011;64732;56.314;44.068;2023-01-26T10:45:43;50.10;;;19.23;;
76035;SDS011;64732;56.314;44.068;2023-01-26T10:48:08;47.42;;;17.95;;
76035;SDS011;64732;56.314;44.068;2023-01-26T10:50:36;50.30;;;17.75;;
76035;SDS011;64732;56.314;44.068;2023-01-26T10:52:57;41.95;;;16.50;;
76035;SDS011;64732;56.314;44.068;2023-01-26T10:55:19;33.95;;;13.82;;
76035;SDS011;64732;56.314;44.068;2023-01-26T10:57:40;57.50;;;18.98;;
76035;SDS011;64732;56.314;44.068;2023-01-26T11:00:04;40.63;;;16.38;;
76035;SDS011;64732;56.314;44.068;2023-01-26T11:02:29;48.88;;;16.75;;
76035;SDS011;64732;56.314;44.068;2023-01-26T11:05:17;45.63;;;16.85;;
76035;SDS011;64732;56.314;44.068;2023-01-26T11:07:40;46.58;;;16.58;;
76035;SDS011;64732;56.314;44.068;2023-01-26T11:10:15;48.58;;;16.67;;
76035;SDS011;64732;56.314;44.068;2023-01-26T11:12:38;44.70;;;17.83;;
76035;SDS011;64732;56.314;44.068;2023-01-26T11:14:59;33.10;;;14.68;;
76035;SDS011;64732;56.314;44.068;2023-01-26T11:17:21;43.45;;;17.45;;
76035;SDS011;64732;56.314;44.068;2023-01-26T11:22:54;34.38;;;13.02;;
76035;SDS011;64732;56.314;44.068;2023-01-26T11:25:21;43.03;;;15.82;;
76035;SDS011;64732;56.314;44.068;2023-01-26T11:27:45;37.08;;;14.98;;
76035;SDS011;64732;56.314;44.068;2023-01-26T11:32:54;42.47;;;16.55;;
76035;SDS011;64732;56.314;44.068;2023-01-26T11:35:21;24.73;;;9.38;;
76035;SDS011;64732;56.314;44.068;2023-01-26T11:37:52;40.15;;;16.15;;
76035;SDS011;64732;56.314;44.068;2023-01-26T11:40:22;39.30;;;15.32;;
76035;SDS011;64732;56.314;44.068;2023-01-26T11:42:48;40.58;;;14.45;;
76035;SDS011;64732;56.314;44.068;2023-01-26T11:45:18;35.65;;;14.52;;
76035;SDS011;64732;56.314;44.068;2023-01-26T11:47:44;38.35;;;15.68;;
76035;SDS011;64732;56.314;44.068;2023-01-26T11:50:18;39.38;;;16.60;;
76035;SDS011;64732;56.314;44.068;2023-01-26T11:52:50;35.38;;;15.27;;
76035;SDS011;64732;56.314;44.068;2023-01-26T11:55:23;36.70;;;13.23;;
76035;SDS011;64732;56.314;44.068;2023-01-26T11:57:50;40.08;;;14.80;;
76035;SDS011;64732;56.314;44.068;2023-01-26T12:00:20;33.25;;;13.70;;
76035;SDS011;64732;56.314;44.068;2023-01-26T12:02:44;33.10;;;12.20;;
76035;SDS011;64732;56.314;44.068;2023-01-26T12:05:11;33.30;;;14.25;;
76035;SDS011;64732;56.314;44.068;2023-01-26T12:07:34;42.53;;;15.27;;
76035;SDS011;64732;56.314;44.068;2023-01-26T12:10:03;33.65;;;13.60;;
76035;SDS011;64732;56.314;44.068;2023-01-26T12:12:28;42.22;;;16.90;;
76035;SDS011;64732;56.314;44.068;2023-01-26T12:14:52;31.92;;;13.27;;
76035;SDS011;64732;56.314;44.068;2023-01-26T12:17:26;35.00;;;14.98;;
76035;SDS011;64732;56.314;44.068;2023-01-26T12:19:56;28.63;;;13.07;;
76035;SDS011;64732;56.314;44.068;2023-01-26T12:22:21;36.72;;;12.73;;
76035;SDS011;64732;56.314;44.068;2023-01-26T12:24:47;35.97;;;13.55;;
76035;SDS011;64732;56.314;44.068;2023-01-26T12:27:16;35.45;;;13.40;;
76035;SDS011;64732;56.314;44.068;2023-01-26T12:29:44;32.90;;;14.52;;
76035;SDS011;64732;56.314;44.068;2023-01-26T12:32:09;38.88;;;15.98;;
76035;SDS011;64732;56.314;44.068;2023-01-26T12:34:32;44.83;;;15.60;;
76035;SDS011;64732;56.314;44.068;2023-01-26T12:36:56;48.22;;;16.55;;
76035;SDS011;64732;56.314;44.068;2023-01-26T12:39:37;44.80;;;16.90;;
76035;SDS011;64732;56.314;44.068;2023-01-26T12:42:06;39.35;;;14.35;;
76035;SDS011;64732;56.314;44.068;2023-01-26T12:44:37;46.85;;;17.65;;
76035;SDS011;64732;56.314;44.068;2023-01-26T12:47:02;43.00;;;16.77;;
76035;SDS011;64732;56.314;44.068;2023-01-26T12:49:30;39.10;;;15.20;;
76035;SDS011;64732;56.314;44.068;2023-01-26T12:51:55;42.88;;;17.33;;
76035;SDS011;64732;56.314;44.068;2023-01-26T12:54:19;39.13;;;17.90;;
76035;SDS011;64732;56.314;44.068;2023-01-26T12:56:46;47.58;;;17.92;;
76035;SDS011;64732;56.314;44.068;2023-01-26T12:59:15;44.80;;;19.08;;
76035;SDS011;64732;56.314;44.068;2023-01-26T13:01:38;42.45;;;16.05;;
76035;SDS011;64732;56.314;44.068;2023-01-26T13:04:01;51.60;;;18.20;;
76035;SDS011;64732;56.314;44.068;2023-01-26T13:06:25;35.70;;;14.93;;
76035;SDS011;64732;56.314;44.068;2023-01-26T13:08:47;47.03;;;17.63;;
76035;SDS011;64732;56.314;44.068;2023-01-26T13:14:18;43.13;;;16.92;;
76035;SDS011;64732;56.314;44.068;2023-01-26T13:16:52;34.60;;;13.70;;
76035;SDS011;64732;56.314;44.068;2023-01-26T13:21:56;47.00;;;17.38;;
76035;SDS011;64732;56.314;44.068;2023-01-26T13:27:17;42.75;;;17.35;;
76035;SDS011;64732;56.314;44.068;2023-01-26T13:29:54;42.00;;;16.02;;
76035;SDS011;64732;56.314;44.068;2023-01-26T13:35:15;51.38;;;18.48;;
76035;SDS011;64732;56.314;44.068;2023-01-26T13:37:40;42.13;;;17.55;;
76035;SDS011;64732;56.314;44.068;2023-01-26T13:40:15;46.70;;;17.65;;
76035;SDS011;64732;56.314;44.068;2023-01-26T13:42:40;49.40;;;19.90;;
76035;SDS011;64732;56.314;44.068;2023-01-26T13:45:13;32.97;;;14.35;;
76035;SDS011;64732;56.314;44.068;2023-01-26T13:47:36;49.80;;;20.10;;
76035;SDS011;64732;56.314;44.068;2023-01-26T13:50:00;57.25;;;21.17;;
76035;SDS011;64732;56.314;44.068;2023-01-26T13:52:24;39.67;;;15.38;;
76035;SDS011;64732;56.314;44.068;2023-01-26T13:54:46;49.88;;;15.98;;
76035;SDS011;64732;56.314;44.068;2023-01-26T13:57:09;50.75;;;17.80;;
76035;SDS011;64732;56.314;44.068;2023-01-26T13:59:31;47.47;;;18.08;;
76035;SDS011;64732;56.314;44.068;2023-01-26T14:01:55;43.50;;;15.68;;
76035;SDS011;64732;56.314;44.068;2023-01-26T14:04:17;44.22;;;15.18;;